createdAt,value
2023-03-24T00:04:39.233Z,1.00
2023-03-24T00:09:45.071Z,1.05
2023-03-24T00:14:48.956Z,1.05
2023-03-24T00:19:52.732Z,1.10
2023-03-24T00:24:58.062Z,1.00
2023-03-24T00:30:01.610Z,1.17
2023-03-24T00:35:05.415Z,1.65
2023-03-24T00:40:12.927Z,1.45
2023-03-24T00:45:20.362Z,1.73
2023-03-24T00:50:27.456Z,1.45
2023-03-24T00:55:34.736Z,1.42
2023-03-24T01:00:42.710Z,1.65
2023-03-24T01:05:48.632Z,1.50
2023-03-24T01:10:54.478Z,2.10
2023-03-24T01:16:20.428Z,1.92
2023-03-24T01:21:25.419Z,1.50
2023-03-24T01:26:30.153Z,2.00
2023-03-24T01:31:33.552Z,1.80
2023-03-24T01:36:37.276Z,2.30
2023-03-24T01:41:42.520Z,2.20
2023-03-24T01:51:51.804Z,2.00
2023-03-24T01:57:00.988Z,1.75
2023-03-24T02:02:06.725Z,2.33
2023-03-24T02:07:32.897Z,2.28
2023-03-24T02:12:38.598Z,2.42
2023-03-24T02:17:57.675Z,2.28
2023-03-24T02:23:26.749Z,2.20
2023-03-24T02:28:42.585Z,2.03
2023-03-24T02:39:38.407Z,2.28
2023-03-24T02:44:52.433Z,2.53
2023-03-24T02:50:02.918Z,2.60
2023-03-24T02:55:15.302Z,2.45
2023-03-24T03:00:26.655Z,2.58
2023-03-24T03:05:58.672Z,2.63
2023-03-24T03:11:06.637Z,2.72
2023-03-24T03:16:15.047Z,3.30
2023-03-24T03:21:21.489Z,2.65
2023-03-24T03:26:28.666Z,2.72
2023-03-24T03:31:37.535Z,2.50
2023-03-24T03:36:49.270Z,2.20
2023-03-24T03:41:54.725Z,2.75
2023-03-24T03:46:58.304Z,2.00
2023-03-24T03:52:13.377Z,2.00
2023-03-24T03:57:19.844Z,2.47
2023-03-24T04:03:00.430Z,2.58
2023-03-24T04:08:29.799Z,2.80
2023-03-24T04:14:06.702Z,2.47
2023-03-24T04:19:37.754Z,2.40
2023-03-24T04:24:49.953Z,2.40
2023-03-24T04:30:07.431Z,2.65
2023-03-24T04:35:20.708Z,2.50
2023-03-24T04:40:43.236Z,2.50
2023-03-24T04:45:50.366Z,2.40
2023-03-24T04:51:07.094Z,2.63
2023-03-24T04:56:41.036Z,2.75
2023-03-24T05:01:55.029Z,1.88
2023-03-24T05:07:07.835Z,2.45
2023-03-24T05:12:13.027Z,2.28
2023-03-24T05:17:38.023Z,2.30
2023-03-24T05:22:41.460Z,2.40
2023-03-24T05:27:45.649Z,2.35
2023-03-24T05:32:59.509Z,2.53
2023-03-24T05:38:03.147Z,2.25
2023-03-24T05:43:08.229Z,2.38
2023-03-24T05:48:17.927Z,2.38
2023-03-24T05:53:39.848Z,2.22
2023-03-24T05:58:45.163Z,2.17
2023-03-24T06:03:49.996Z,2.78
2023-03-24T06:08:55.102Z,2.25
2023-03-24T06:14:00.472Z,2.30
2023-03-24T06:19:09.128Z,2.50
2023-03-24T06:24:27.565Z,2.65
2023-03-24T06:29:36.574Z,2.13
2023-03-24T06:34:41.593Z,2.28
2023-03-24T06:40:10.290Z,2.17
2023-03-24T06:45:17.993Z,2.25
2023-03-24T06:50:26.906Z,2.03
2023-03-24T06:55:31.716Z,2.22
2023-03-24T07:00:36.997Z,2.10
2023-03-24T07:05:57.238Z,2.13
2023-03-24T07:11:02.394Z,2.13
2023-03-24T07:16:06.322Z,2.13
2023-03-24T07:21:13.180Z,2.08
2023-03-24T07:26:16.792Z,2.20
2023-03-24T07:31:38.314Z,1.88
2023-03-24T07:36:46.119Z,2.03
2023-03-24T07:41:52.901Z,1.90
2023-03-24T07:47:15.687Z,2.28
2023-03-24T07:52:20.892Z,2.33
2023-03-24T07:57:28.112Z,2.10
2023-03-24T08:02:32.205Z,2.20
2023-03-24T08:07:58.624Z,2.17
2023-03-24T08:13:02.602Z,2.20
2023-03-24T08:18:06.352Z,1.70
2023-03-24T08:23:11.288Z,2.20
2023-03-24T08:28:14.644Z,1.60
2023-03-24T08:33:26.955Z,1.58
2023-03-24T08:38:33.487Z,1.60
2023-03-24T08:43:37.723Z,1.25
2023-03-24T08:48:43.243Z,1.00
2023-03-24T08:53:48.041Z,1.20
2023-03-24T08:58:53.815Z,1.30
2023-03-24T09:03:57.499Z,1.40
2023-03-24T09:09:02.276Z,1.08
2023-03-24T09:14:05.703Z,1.08
2023-03-24T09:19:09.667Z,0.95
2023-03-24T09:24:14.468Z,1.40
2023-03-24T09:29:19.418Z,1.00
2023-03-24T09:34:22.693Z,1.10
2023-03-24T09:39:27.903Z,1.15
2023-03-24T09:49:42.713Z,0.93
2023-03-24T09:54:53.874Z,1.00
2023-03-24T09:59:57.999Z,1.17
2023-03-24T10:05:01.406Z,0.95
2023-03-24T10:10:21.181Z,1.00
2023-03-24T10:15:37.593Z,0.90
2023-03-24T10:20:48.708Z,1.00
2023-03-24T10:26:00.572Z,1.08
2023-03-24T10:31:07.575Z,1.10
2023-03-24T10:36:15.114Z,1.23
2023-03-24T10:41:22.240Z,1.20
2023-03-24T10:46:28.144Z,1.52
2023-03-24T10:51:34.756Z,1.00
2023-03-24T10:56:45.193Z,1.10
2023-03-24T11:01:48.881Z,0.90
2023-03-24T11:07:05.642Z,0.75
2023-03-24T11:12:23.503Z,0.60
2023-03-24T11:17:26.965Z,0.75
2023-03-24T11:22:31.378Z,0.70
2023-03-24T11:27:43.201Z,0.30
2023-03-24T11:32:49.549Z,0.50
2023-03-24T11:37:52.981Z,0.70
2023-03-24T11:43:01.063Z,0.60
2023-03-24T11:48:13.570Z,0.80
2023-03-24T11:53:21.148Z,0.75
2023-03-24T11:58:32.240Z,0.60
2023-03-24T12:03:59.558Z,0.80
2023-03-24T12:09:10.786Z,0.77
2023-03-24T12:14:20.613Z,0.70
2023-03-24T12:19:37.912Z,0.70
2023-03-24T12:25:09.970Z,1.02
2023-03-24T12:30:22.937Z,1.13
2023-03-24T12:35:39.656Z,0.75
2023-03-24T12:41:16.255Z,0.68
2023-03-24T12:51:48.890Z,0.70
2023-03-24T12:56:56.633Z,0.90
2023-03-24T13:02:10.890Z,1.00
2023-03-24T13:07:18.334Z,1.00
2023-03-24T13:12:24.657Z,1.67
2023-03-24T13:17:35.775Z,0.90
2023-03-24T13:22:39.432Z,1.20
2023-03-24T13:27:44.094Z,1.33
2023-03-24T13:32:52.545Z,0.70
2023-03-24T13:38:02.875Z,0.80
2023-03-24T13:43:12.932Z,0.80
2023-03-24T13:48:34.397Z,0.82
2023-03-24T13:53:41.236Z,1.05
2023-03-24T13:59:04.121Z,0.90
2023-03-24T14:04:26.031Z,1.17
2023-03-24T14:09:31.051Z,1.30
2023-03-24T14:14:36.003Z,1.58
2023-03-24T14:19:43.135Z,1.30
2023-03-24T14:24:48.199Z,1.10
2023-03-24T14:29:52.796Z,1.45
2023-03-24T14:35:00.270Z,1.20
2023-03-24T14:40:04.178Z,1.05
2023-03-24T14:45:33.074Z,0.77
2023-03-24T14:50:38.723Z,0.88
2023-03-24T15:01:04.276Z,1.02
2023-03-24T15:06:23.624Z,1.13
2023-03-24T15:11:31.491Z,0.93
2023-03-24T15:16:37.160Z,1.50
2023-03-24T15:21:47.897Z,0.85
2023-03-24T15:26:53.731Z,1.05
2023-03-24T15:31:57.052Z,0.70
2023-03-24T15:37:04.295Z,1.10
2023-03-24T15:42:09.361Z,1.00
2023-03-24T15:47:19.423Z,1.00
2023-03-24T15:52:31.459Z,1.48
2023-03-24T15:57:41.032Z,1.10
2023-03-24T16:02:48.310Z,1.10
2023-03-24T16:07:57.630Z,0.95
2023-03-24T16:13:15.028Z,1.25
2023-03-24T16:18:22.732Z,0.93
2023-03-24T16:23:27.350Z,0.90
2023-03-24T16:28:32.791Z,0.87
2023-03-24T16:33:37.537Z,1.65
2023-03-24T16:38:42.288Z,1.50
2023-03-24T16:43:46.954Z,2.07
2023-03-24T16:48:50.658Z,1.33
2023-03-24T16:53:55.381Z,1.48
2023-03-24T16:58:59.579Z,1.93
2023-03-24T17:04:05.153Z,1.70
2023-03-24T17:09:10.278Z,1.65
2023-03-24T17:14:13.542Z,1.70
2023-03-24T17:19:19.360Z,2.50
2023-03-24T17:24:24.563Z,1.77
2023-03-24T17:29:27.812Z,1.83
2023-03-24T17:34:31.142Z,1.80
2023-03-24T17:39:36.093Z,1.92
2023-03-24T17:44:39.986Z,1.70
2023-03-24T17:49:43.853Z,2.10
2023-03-24T17:54:48.899Z,1.90
2023-03-24T17:59:53.180Z,1.85
2023-03-24T18:04:56.688Z,2.08
2023-03-24T18:10:02.210Z,1.83
2023-03-24T18:15:07.475Z,2.05
2023-03-24T18:20:12.675Z,2.10
2023-03-24T18:25:17.750Z,2.22
2023-03-24T18:30:22.473Z,2.25
2023-03-24T18:35:25.932Z,1.50
2023-03-24T18:40:30.959Z,2.53
2023-03-24T18:45:34.718Z,3.20
2023-03-24T18:50:40.944Z,2.25
2023-03-24T18:55:48.719Z,1.60
2023-03-24T19:00:54.200Z,2.22
2023-03-24T19:06:02.554Z,1.95
2023-03-24T19:11:07.975Z,1.92
2023-03-24T19:16:12.847Z,1.67
2023-03-24T19:21:17.351Z,1.70
2023-03-24T19:26:22.969Z,1.48
2023-03-24T19:36:29.575Z,1.33
2023-03-24T19:41:34.673Z,1.88
2023-03-24T19:46:38.279Z,5.68
2023-03-24T19:51:41.627Z,1.75
2023-03-24T19:56:46.269Z,1.42
2023-03-24T20:01:49.669Z,1.63
2023-03-24T20:06:52.962Z,1.55
2023-03-24T20:11:57.547Z,1.42
2023-03-24T20:17:01.267Z,1.77
2023-03-24T20:22:04.875Z,1.77
2023-03-24T20:27:10.134Z,1.52
2023-03-24T20:32:13.968Z,1.52
2023-03-24T20:37:18.192Z,2.17
2023-03-24T20:42:24.587Z,1.80
2023-03-24T20:47:28.317Z,1.83
2023-03-24T20:52:32.936Z,1.85
2023-03-24T20:57:38.392Z,2.30
2023-03-24T21:02:43.654Z,2.13
2023-03-24T21:12:54.649Z,1.55
2023-03-24T21:17:58.995Z,2.20
2023-03-24T21:23:04.772Z,1.60
2023-03-24T21:28:14.103Z,2.47
2023-03-24T21:33:17.952Z,1.90
2023-03-24T21:38:21.248Z,3.03
2023-03-24T21:43:27.564Z,1.90
2023-03-24T21:48:33.243Z,2.53
2023-03-24T21:53:36.933Z,1.98
2023-03-24T21:58:41.673Z,1.85
2023-03-24T22:03:46.837Z,3.10
2023-03-24T22:08:50.150Z,2.28
2023-03-24T22:13:55.334Z,2.30
2023-03-24T22:18:59.115Z,2.92
2023-03-24T22:24:02.617Z,2.35
2023-03-24T22:29:07.314Z,2.42
2023-03-24T22:34:10.984Z,2.23
2023-03-24T22:39:14.808Z,2.00
2023-03-24T22:44:20.745Z,2.25
2023-03-24T22:49:24.361Z,1.80
2023-03-24T22:54:27.952Z,2.10
2023-03-24T22:59:33.633Z,2.85
2023-03-24T23:09:43.496Z,2.63
2023-03-24T23:14:48.498Z,2.70
2023-03-24T23:19:52.619Z,2.50
2023-03-24T23:25:01.921Z,2.25
2023-03-24T23:30:11.255Z,2.40
2023-03-24T23:35:15.076Z,2.33
2023-03-24T23:40:19.646Z,2.42
2023-03-24T23:45:24.683Z,2.40
2023-03-24T23:50:29.727Z,2.88
2023-03-24T23:55:33.379Z,2.05
